Estació municipal de St. Julià de Vilatorta (Osona, E.N.Guilleries-Savassona)

Consulta les dades en temps real de l'estació municipal de St. Julià de Vilatorta





Hora UTC 01:45
Temperatura 19.6 ºC
Subsòl 10 cm 15.0 ºC
Humitat 78.9 %
Pressió 1021.3 hPa
Pluja 0.0 mm
Velocitat vent 2.6 km/h
Direcció vent ESE
Radiació solar 0.7 W/m²
Fuel 7.8 %

Webcam

Dades diàries 2026-09-05



Hora UTC (hivern +1h; estiu +2h)
Temperatura (ºC) Humitat (%) Pressió (hPa) Velocitat vent (km/h) Precipitació (mm) Fuel (%) Radiació solar (W/m²)
Hora UTC Aire Subsòl 10 cm Humitat Pressió Vel. Dir. Vel. Max Dir. Intent. màx 5 min. Fuel Rad. Sol.
00:05 20.7 16.4 78.3 1021.4 3.8 ESE 3.8 ESE 0.0 7.2 0.6
00:10 20.7 16.3 78.5 1021.4 3.8 ESE 5.4 ESE 0.0 7.3 0.4
00:15 20.6 16.1 78.5 1021.4 3.8 E 5.7 ESE 0.0 7.3 0.5
00:20 20.6 16.0 78.3 1021.4 3.7 ESE 5.9 ESE 0.0 7.3 0.4
00:25 20.4 15.9 79.2 1021.4 2.6 ESE 4.4 ESE 0.0 7.4 0.3
00:30 20.4 15.8 79.4 1021.4 2.2 SE 3.2 SE 0.0 7.4 0.4
00:35 20.3 15.7 79.5 1021.4 2.3 SE 3.9 SE 0.0 7.4 0.2
00:40 20.2 15.7 80.2 1021.4 1.4 ESE 2.8 ESE 0.0 7.5 0.4
00:45 20.1 15.5 80.2 1021.3 2.3 SE 3.1 SE 0.0 7.5 0.6
00:50 20.1 15.4 79.9 1021.3 2.3 ESE 3.1 SE 0.0 7.5 0.6
00:55 20.1 15.4 80.0 1021.3 2.5 SE 3.3 ESE 0.0 7.6 0.7
01:00 20.1 15.4 79.3 1021.2 3.5 ESE 5.6 ESE 0.0 7.6 0.7
01:05 19.9 15.5 80.3 1021.3 1.6 SE 4.6 ESE 0.0 7.6 0.2
01:10 19.8 15.4 80.1 1021.3 2.6 ESE 6.9 ESE 0.0 7.7 0.8
01:15 19.7 15.3 80.2 1021.3 2.1 SE 4.1 SE 0.0 7.7 0.9
01:20 19.7 15.2 79.9 1021.3 2.5 ESE 4.0 ESE 0.0 7.7 0.9
01:25 19.7 15.2 79.5 1021.3 2.3 ESE 4.6 ESE 0.0 7.8 0.9
01:30 19.6 15.1 80.0 1021.3 2.6 ESE 4.1 ESE 0.0 7.8 0.7
01:35 19.6 15.1 79.4 1021.3 2.4 SE 3.3 SE 0.0 7.8 0.7
01:40 19.7 15.0 78.7 1021.4 2.0 SE 2.9 ESE 0.0 7.8 0.9
01:45 19.6 15.0 78.9 1021.3 2.6 ESE 3.8 ESE 0.0 7.8 0.7
Màxima 20.7 16.4 80.3 1021.4 3.8 E 6.9 ESE 0.0 7.8 0.9
Mínima 19.6 15.0 78.3 1021.2 7.2
Total 0.0